Time,TemperatureF,DewpointF,PressureIn,WindDirection,WindDirectionDegrees,WindSpeedMPH,WindSpeedGustMPH,Humidity,HourlyPrecipIn,Conditions,Clouds,dailyrainin,SolarRadiationWatts/m^2,SoftwareType,DateUTC
2013-01-14 00:00:00,25.0,19.0,-100.00,SW,225,12.0,-999.0,76,-99.99,,,-99.99,0.000000,,2013-01-14 05:00:00,
2013-01-14 00:43:00,25.0,19.0,-100.00,SW,225,12.0,-999.0,76,-99.99,,,-99.99,0.000000,,2013-01-14 05:43:00,
2013-01-14 00:53:00,25.0,19.0,-100.00,SW,225,12.0,-999.0,76,-99.99,,,-99.99,0.000000,,2013-01-14 05:53:00,
2013-01-14 01:00:00,25.0,19.0,-100.00,SSW,202,14.0,-999.0,79,-99.99,,,-99.99,0.000000,,2013-01-14 06:00:00,
2013-01-14 01:43:00,25.0,19.0,-100.00,SSW,202,14.0,-999.0,79,-99.99,,,-99.99,0.000000,,2013-01-14 06:43:00,
2013-01-14 01:53:00,25.0,19.0,-100.00,SSW,202,14.0,-999.0,79,-99.99,,,-99.99,0.000000,,2013-01-14 06:53:00,
2013-01-14 03:00:00,22.0,19.0,-100.00,West,270,12.0,-999.0,86,-99.99,,,-99.99,0.000000,,2013-01-14 08:00:00,
2013-01-14 03:43:00,22.0,19.0,-100.00,West,270,12.0,-999.0,86,-99.99,,,-99.99,0.000000,,2013-01-14 08:43:00,
2013-01-14 03:53:00,22.0,19.0,-100.00,West,270,12.0,-999.0,86,-99.99,,,-99.99,0.000000,,2013-01-14 08:53:00,
2013-01-14 04:00:00,22.0,15.0,-100.00,West,270,11.0,-999.0,75,-99.99,,,-99.99,0.000000,,2013-01-14 09:00:00,
2013-01-14 04:34:00,22.0,15.0,-100.00,West,270,11.0,-999.0,75,-99.99,,,-99.99,0.000000,,2013-01-14 09:34:00,
2013-01-14 04:43:00,22.0,15.0,-100.00,West,270,11.0,-999.0,75,-99.99,,,-99.99,0.000000,,2013-01-14 09:43:00,
2013-01-14 04:53:00,22.0,15.0,-100.00,West,270,11.0,-999.0,75,-99.99,,,-99.99,0.000000,,2013-01-14 09:53:00,
2013-01-14 05:00:00,21.0,15.0,-100.00,West,270,12.0,-999.0,77,-99.99,,,-99.99,0.000000,,2013-01-14 10:00:00,
2013-01-14 05:43:00,21.0,15.0,-100.00,West,270,12.0,-999.0,77,-99.99,,,-99.99,0.000000,,2013-01-14 10:43:00,
2013-01-14 05:53:00,21.0,15.0,-100.00,West,270,12.0,-999.0,77,-99.99,,,-99.99,0.000000,,2013-01-14 10:53:00,
2013-01-14 06:00:00,20.0,13.0,-100.00,West,270,11.0,-999.0,72,-99.99,,,-99.99,0.000000,,2013-01-14 11:00:00,
2013-01-14 06:43:00,20.0,13.0,-100.00,West,270,11.0,-999.0,72,-99.99,,,-99.99,0.000000,,2013-01-14 11:43:00,
2013-01-14 06:53:00,20.0,13.0,-100.00,West,270,11.0,-999.0,72,-99.99,,,-99.99,0.000000,,2013-01-14 11:53:00,
2013-01-14 07:00:00,20.0,13.0,-100.00,West,270,10.0,-999.0,72,-99.99,,,-99.99,0.000000,,2013-01-14 12:00:00,
2013-01-14 07:43:00,20.0,13.0,-100.00,West,270,10.0,-999.0,72,-99.99,,,-99.99,0.000000,,2013-01-14 12:43:00,
2013-01-14 07:53:00,20.0,13.0,-100.00,West,270,10.0,-999.0,72,-99.99,,,-99.99,0.000000,,2013-01-14 12:53:00,
2013-01-14 08:00:00,20.0,13.0,-100.00,West,270,9.0,-999.0,71,-99.99,,,-99.99,0.000000,,2013-01-14 13:00:00,
2013-01-14 08:34:00,20.0,13.0,-100.00,West,270,9.0,-999.0,71,-99.99,,,-99.99,0.000000,,2013-01-14 13:34:00,
2013-01-14 08:43:00,20.0,13.0,-100.00,West,270,9.0,-999.0,71,-99.99,,,-99.99,0.000000,,2013-01-14 13:43:00,
2013-01-14 08:53:00,20.0,13.0,-100.00,West,270,9.0,-999.0,71,-99.99,,,-99.99,0.000000,,2013-01-14 13:53:00,
2013-01-14 09:00:00,20.0,13.0,-100.00,SW,225,10.0,-999.0,73,-99.99,,,-99.99,4.640000,,2013-01-14 14:00:00,
2013-01-14 09:33:00,20.0,13.0,-100.00,SW,225,10.0,-999.0,73,-99.99,,,-99.99,4.640000,,2013-01-14 14:33:00,
2013-01-14 09:43:00,20.0,13.0,-100.00,SW,225,10.0,-999.0,73,-99.99,,,-99.99,4.640000,,2013-01-14 14:43:00,
2013-01-14 09:53:00,20.0,13.0,-100.00,SW,225,10.0,-999.0,73,-99.99,,,-99.99,4.640000,,2013-01-14 14:53:00,
2013-01-14 10:00:00,20.0,13.0,-100.00,SW,225,9.0,-999.0,75,-99.99,,,-99.99,24.360001,,2013-01-14 15:00:00,
2013-01-14 10:43:00,20.0,13.0,-100.00,SW,225,9.0,-999.0,75,-99.99,,,-99.99,24.360001,,2013-01-14 15:43:00,
2013-01-14 10:53:00,20.0,13.0,-100.00,SW,225,9.0,-999.0,75,-99.99,,,-99.99,24.360001,,2013-01-14 15:53:00,
2013-01-14 11:00:00,20.0,14.0,-100.00,SW,225,9.0,-999.0,75,-99.99,,,-99.99,64.959999,,2013-01-14 16:00:00,
2013-01-14 11:33:00,20.0,14.0,-100.00,SW,225,9.0,-999.0,75,-99.99,,,-99.99,64.959999,,2013-01-14 16:33:00,
2013-01-14 11:43:00,20.0,14.0,-100.00,SW,225,9.0,-999.0,75,-99.99,,,-99.99,64.959999,,2013-01-14 16:43:00,
2013-01-14 11:53:00,20.0,14.0,-100.00,SW,225,9.0,-999.0,75,-99.99,,,-99.99,64.959999,,2013-01-14 16:53:00,
2013-01-14 12:00:00,21.0,13.0,-100.00,WSW,247,9.0,-999.0,72,-99.99,,,-99.99,118.320000,,2013-01-14 17:00:00,
2013-01-14 12:43:00,21.0,13.0,-100.00,WSW,247,9.0,-999.0,72,-99.99,,,-99.99,118.320000,,2013-01-14 17:43:00,
2013-01-14 12:54:00,21.0,13.0,-100.00,WSW,247,9.0,-999.0,72,-99.99,,,-99.99,118.320000,,2013-01-14 17:54:00,
2013-01-14 13:00:00,21.0,13.0,-100.00,SW,225,8.0,-999.0,70,-99.99,,,-99.99,134.559998,,2013-01-14 18:00:00,
2013-01-14 13:43:00,21.0,13.0,-100.00,SW,225,8.0,-999.0,70,-99.99,,,-99.99,134.559998,,2013-01-14 18:43:00,
2013-01-14 13:53:00,21.0,13.0,-100.00,SW,225,8.0,-999.0,70,-99.99,,,-99.99,134.559998,,2013-01-14 18:53:00,
2013-01-14 14:00:00,22.0,12.0,-100.00,SW,225,8.0,-999.0,64,-99.99,,,-99.99,241.279999,,2013-01-14 19:00:00,
2013-01-14 14:43:00,22.0,12.0,-100.00,SW,225,8.0,-999.0,64,-99.99,,,-99.99,241.279999,,2013-01-14 19:43:00,
2013-01-14 14:53:00,22.0,12.0,-100.00,SW,225,8.0,-999.0,64,-99.99,,,-99.99,241.279999,,2013-01-14 19:53:00,
2013-01-14 15:00:00,23.0,12.0,-100.00,WSW,247,8.0,-999.0,61,-99.99,,,-99.99,248.240005,,2013-01-14 20:00:00,
2013-01-14 15:43:00,23.0,12.0,-100.00,WSW,247,8.0,-999.0,61,-99.99,,,-99.99,248.240005,,2013-01-14 20:43:00,
2013-01-14 15:53:00,23.0,12.0,-100.00,WSW,247,8.0,-999.0,61,-99.99,,,-99.99,248.240005,,2013-01-14 20:53:00,
2013-01-14 16:00:00,24.0,12.0,-100.00,WSW,247,7.0,-999.0,61,-99.99,,,-99.99,206.479996,,2013-01-14 21:00:00,
2013-01-14 16:43:00,24.0,12.0,-100.00,WSW,247,7.0,-999.0,61,-99.99,,,-99.99,206.479996,,2013-01-14 21:43:00,
2013-01-14 16:53:00,24.0,12.0,-100.00,WSW,247,7.0,-999.0,61,-99.99,,,-99.99,206.479996,,2013-01-14 21:53:00,
2013-01-14 17:00:00,23.0,13.0,-100.00,SW,225,6.0,-999.0,63,-99.99,,,-99.99,58.000000,,2013-01-14 22:00:00,
2013-01-14 17:43:00,23.0,13.0,-100.00,SW,225,6.0,-999.0,63,-99.99,,,-99.99,58.000000,,2013-01-14 22:43:00,
2013-01-14 17:53:00,23.0,13.0,-100.00,SW,225,6.0,-999.0,63,-99.99,,,-99.99,58.000000,,2013-01-14 22:53:00,
2013-01-14 18:00:00,22.0,12.0,-100.00,South,180,6.0,-999.0,64,-99.99,,,-99.99,5.800000,,2013-01-14 23:00:00,
2013-01-14 18:43:00,22.0,12.0,-100.00,South,180,6.0,-999.0,64,-99.99,,,-99.99,5.800000,,2013-01-14 23:43:00,
2013-01-14 18:53:00,22.0,12.0,-100.00,South,180,6.0,-999.0,64,-99.99,,,-99.99,5.800000,,2013-01-14 23:53:00,
2013-01-14 19:00:00,20.0,11.0,-100.00,South,180,6.0,-999.0,66,-99.99,,,-99.99,0.000000,,2013-01-15 00:00:00,
2013-01-14 19:43:00,20.0,11.0,-100.00,South,180,6.0,-999.0,66,-99.99,,,-99.99,0.000000,,2013-01-15 00:43:00,
2013-01-14 19:53:00,20.0,11.0,-100.00,South,180,6.0,-999.0,66,-99.99,,,-99.99,0.000000,,2013-01-15 00:53:00,
2013-01-14 21:00:00,22.0,14.0,-100.00,South,180,8.0,-999.0,70,-99.99,,,-99.99,0.000000,,2013-01-15 02:00:00,
2013-01-14 21:43:00,22.0,14.0,-100.00,South,180,8.0,-999.0,70,-99.99,,,-99.99,0.000000,,2013-01-15 02:43:00,
2013-01-14 21:53:00,22.0,14.0,-100.00,South,180,8.0,-999.0,70,-99.99,,,-99.99,0.000000,,2013-01-15 02:53:00,
2013-01-14 22:00:00,23.0,15.0,-100.00,SSW,202,16.0,-999.0,70,-99.99,,,-99.99,0.000000,,2013-01-15 03:00:00,
2013-01-14 22:43:00,23.0,15.0,-100.00,SSW,202,16.0,-999.0,70,-99.99,,,-99.99,0.000000,,2013-01-15 03:43:00,
2013-01-14 22:53:00,23.0,15.0,-100.00,SSW,202,16.0,-999.0,70,-99.99,,,-99.99,0.000000,,2013-01-15 03:53:00,
2013-01-14 23:00:00,22.0,14.0,-100.00,SSW,202,14.0,-999.0,70,-99.99,,,-99.99,0.000000,,2013-01-15 04:00:00,
2013-01-14 23:33:00,22.0,14.0,-100.00,SSW,202,14.0,-999.0,70,-99.99,,,-99.99,0.000000,,2013-01-15 04:33:00,
2013-01-14 23:43:00,22.0,14.0,-100.00,SSW,202,14.0,-999.0,70,-99.99,,,-99.99,0.000000,,2013-01-15 04:43:00,
2013-01-14 23:52:00,22.0,14.0,-100.00,SSW,202,14.0,-999.0,70,-99.99,,,-99.99,0.000000,,2013-01-15 04:52:00,